sensor_id;sensor_type;location;lat;lon;timestamp;temperature;humidity
24326;DHT22;12448;45.532;5.290;2023-02-01T00:00:44;5.80;92.80
24326;DHT22;12448;45.532;5.290;2023-02-01T00:06:56;5.80;92.80
24326;DHT22;12448;45.532;5.290;2023-02-01T00:13:07;5.80;92.90
24326;DHT22;12448;45.532;5.290;2023-02-01T00:15:39;6.00;93.00
24326;DHT22;12448;45.532;5.290;2023-02-01T00:18:17;5.80;92.90
24326;DHT22;12448;45.532;5.290;2023-02-01T00:20:56;5.80;92.90
24326;DHT22;12448;45.532;5.290;2023-02-01T00:23:28;5.80;92.80
24326;DHT22;12448;45.532;5.290;2023-02-01T00:29:07;5.80;92.80
24326;DHT22;12448;45.532;5.290;2023-02-01T00:31:34;5.80;92.70
24326;DHT22;12448;45.532;5.290;2023-02-01T00:34:03;5.70;92.70
24326;DHT22;12448;45.532;5.290;2023-02-01T00:36:31;5.70;92.90
24326;DHT22;12448;45.532;5.290;2023-02-01T00:38:59;5.70;92.90
24326;DHT22;12448;45.532;5.290;2023-02-01T00:41:28;5.80;93.00
24326;DHT22;12448;45.532;5.290;2023-02-01T00:44:07;5.80;93.00
24326;DHT22;12448;45.532;5.290;2023-02-01T00:46:36;5.80;93.00
24326;DHT22;12448;45.532;5.290;2023-02-01T00:49:16;5.80;93.00
24326;DHT22;12448;45.532;5.290;2023-02-01T00:52:15;5.80;92.90
24326;DHT22;12448;45.532;5.290;2023-02-01T00:54:41;6.20;93.00
24326;DHT22;12448;45.532;5.290;2023-02-01T00:57:07;5.70;92.90
24326;DHT22;12448;45.532;5.290;2023-02-01T00:59:33;5.80;93.00
24326;DHT22;12448;45.532;5.290;2023-02-01T01:02:10;5.70;92.90
24326;DHT22;12448;45.532;5.290;2023-02-01T01:04:40;5.80;92.90
24326;DHT22;12448;45.532;5.290;2023-02-01T01:07:09;5.80;92.90
24326;DHT22;12448;45.532;5.290;2023-02-01T01:09:38;5.80;92.90
24326;DHT22;12448;45.532;5.290;2023-02-01T01:12:06;5.80;92.80
24326;DHT22;12448;45.532;5.290;2023-02-01T01:14:37;5.80;92.70
24326;DHT22;12448;45.532;5.290;2023-02-01T01:17:06;5.80;92.70
24326;DHT22;12448;45.532;5.290;2023-02-01T01:19:39;5.80;92.70
24326;DHT22;12448;45.532;5.290;2023-02-01T01:22:31;5.80;92.70
24326;DHT22;12448;45.532;5.290;2023-02-01T01:28:09;5.80;92.50
24326;DHT22;12448;45.532;5.290;2023-02-01T01:30:49;5.80;92.40
24326;DHT22;12448;45.532;5.290;2023-02-01T01:33:28;5.80;92.40
24326;DHT22;12448;45.532;5.290;2023-02-01T01:35:54;5.70;92.40
24326;DHT22;12448;45.532;5.290;2023-02-01T01:38:26;5.70;92.50
24326;DHT22;12448;45.532;5.290;2023-02-01T01:40:57;5.40;92.40
24326;DHT22;12448;45.532;5.290;2023-02-01T01:43:24;5.70;92.50
24326;DHT22;12448;45.532;5.290;2023-02-01T01:45:53;5.70;92.50
24326;DHT22;12448;45.532;5.290;2023-02-01T01:48:27;5.70;92.50
24326;DHT22;12448;45.532;5.290;2023-02-01T01:54:24;5.70;92.50
24326;DHT22;12448;45.532;5.290;2023-02-01T01:56:58;5.80;92.50
24326;DHT22;12448;45.532;5.290;2023-02-01T01:59:31;5.70;92.50
24326;DHT22;12448;45.532;5.290;2023-02-01T02:01:57;5.70;92.60
24326;DHT22;12448;45.532;5.290;2023-02-01T02:04:23;5.70;92.60
24326;DHT22;12448;45.532;5.290;2023-02-01T02:09:52;5.70;92.60
24326;DHT22;12448;45.532;5.290;2023-02-01T02:12:28;5.70;92.60
24326;DHT22;12448;45.532;5.290;2023-02-01T02:14:58;5.70;92.70
24326;DHT22;12448;45.532;5.290;2023-02-01T02:18:13;5.70;92.70
24326;DHT22;12448;45.532;5.290;2023-02-01T02:50:37;5.70;93.20
24326;DHT22;12448;45.532;5.290;2023-02-01T02:53:30;5.70;93.20
24326;DHT22;12448;45.532;5.290;2023-02-01T02:56:18;5.70;93.20
24326;DHT22;12448;45.532;5.290;2023-02-01T02:59:07;5.70;93.20
24326;DHT22;12448;45.532;5.290;2023-02-01T03:02:16;5.60;93.30
24326;DHT22;12448;45.532;5.290;2023-02-01T03:10:35;5.60;93.40
24326;DHT22;12448;45.532;5.290;2023-02-01T03:19:12;5.60;93.40
24326;DHT22;12448;45.532;5.290;2023-02-01T03:22:12;5.60;93.40
24326;DHT22;12448;45.532;5.290;2023-02-01T03:27:27;5.60;93.40
24326;DHT22;12448;45.532;5.290;2023-02-01T03:30:09;5.50;93.30
24326;DHT22;12448;45.532;5.290;2023-02-01T03:32:42;5.50;93.30
24326;DHT22;12448;45.532;5.290;2023-02-01T03:38:45;5.50;93.50
24326;DHT22;12448;45.532;5.290;2023-02-01T03:41:48;5.50;93.50
24326;DHT22;12448;45.532;5.290;2023-02-01T03:44:29;5.50;93.60
24326;DHT22;12448;45.532;5.290;2023-02-01T03:50:04;5.60;93.60
24326;DHT22;12448;45.532;5.290;2023-02-01T03:53:11;5.50;93.40
24326;DHT22;12448;45.532;5.290;2023-02-01T03:55:45;5.50;93.50
24326;DHT22;12448;45.532;5.290;2023-02-01T03:58:21;5.40;93.60
24326;DHT22;12448;45.532;5.290;2023-02-01T04:00:53;5.50;94.10
24326;DHT22;12448;45.532;5.290;2023-02-01T04:03:19;5.50;93.80
24326;DHT22;12448;45.532;5.290;2023-02-01T04:05:48;5.50;93.80
24326;DHT22;12448;45.532;5.290;2023-02-01T04:08:21;5.50;93.80
24326;DHT22;12448;45.532;5.290;2023-02-01T04:11:02;5.50;93.80
24326;DHT22;12448;45.532;5.290;2023-02-01T04:13:31;5.60;93.80
24326;DHT22;12448;45.532;5.290;2023-02-01T04:19:35;5.60;93.80
24326;DHT22;12448;45.532;5.290;2023-02-01T04:22:06;5.70;93.80
24326;DHT22;12448;45.532;5.290;2023-02-01T04:24:58;5.60;93.80
24326;DHT22;12448;45.532;5.290;2023-02-01T04:27:30;5.60;93.80
24326;DHT22;12448;45.532;5.290;2023-02-01T04:30:05;5.60;93.80
24326;DHT22;12448;45.532;5.290;2023-02-01T04:32:38;5.70;93.90
24326;DHT22;12448;45.532;5.290;2023-02-01T04:35:10;5.70;93.90
24326;DHT22;12448;45.532;5.290;2023-02-01T04:37:43;5.70;93.90
24326;DHT22;12448;45.532;5.290;2023-02-01T04:40:38;5.70;93.90
24326;DHT22;12448;45.532;5.290;2023-02-01T04:43:10;5.70;93.90
24326;DHT22;12448;45.532;5.290;2023-02-01T04:45:45;5.70;93.90
24326;DHT22;12448;45.532;5.290;2023-02-01T04:51:30;5.70;94.00
24326;DHT22;12448;45.532;5.290;2023-02-01T04:53:59;5.80;94.00
24326;DHT22;12448;45.532;5.290;2023-02-01T04:56:28;5.70;94.00
24326;DHT22;12448;45.532;5.290;2023-02-01T04:59:00;5.70;94.00
24326;DHT22;12448;45.532;5.290;2023-02-01T05:02:01;5.70;94.00
24326;DHT22;12448;45.532;5.290;2023-02-01T05:04:30;5.70;94.00
24326;DHT22;12448;45.532;5.290;2023-02-01T05:06:59;5.60;94.00
24326;DHT22;12448;45.532;5.290;2023-02-01T05:09:28;5.60;94.30
24326;DHT22;12448;45.532;5.290;2023-02-01T05:11:59;5.60;94.10
24326;DHT22;12448;45.532;5.290;2023-02-01T05:14:44;5.60;94.20
24326;DHT22;12448;45.532;5.290;2023-02-01T05:17:18;5.60;94.20
24326;DHT22;12448;45.532;5.290;2023-02-01T05:19:47;5.60;94.20
24326;DHT22;12448;45.532;5.290;2023-02-01T05:22:15;5.60;94.30
24326;DHT22;12448;45.532;5.290;2023-02-01T05:24:44;5.60;94.20
24326;DHT22;12448;45.532;5.290;2023-02-01T05:27:13;5.60;94.20
24326;DHT22;12448;45.532;5.290;2023-02-01T05:29:41;5.60;94.30
24326;DHT22;12448;45.532;5.290;2023-02-01T05:32:08;5.60;94.30
24326;DHT22;12448;45.532;5.290;2023-02-01T05:34:37;5.60;94.30
24326;DHT22;12448;45.532;5.290;2023-02-01T05:37:03;5.60;94.40
24326;DHT22;12448;45.532;5.290;2023-02-01T05:39:34;5.50;94.30
24326;DHT22;12448;45.532;5.290;2023-02-01T05:42:03;5.50;94.40
24326;DHT22;12448;45.532;5.290;2023-02-01T05:44:32;5.60;94.50
24326;DHT22;12448;45.532;5.290;2023-02-01T05:50:09;5.60;94.90
24326;DHT22;12448;45.532;5.290;2023-02-01T05:55:23;5.60;94.50
24326;DHT22;12448;45.532;5.290;2023-02-01T05:57:49;5.60;94.60
24326;DHT22;12448;45.532;5.290;2023-02-01T06:00:15;5.60;94.60
24326;DHT22;12448;45.532;5.290;2023-02-01T06:02:41;5.60;94.60
24326;DHT22;12448;45.532;5.290;2023-02-01T06:05:12;5.60;94.60
24326;DHT22;12448;45.532;5.290;2023-02-01T06:07:41;5.90;94.70
24326;DHT22;12448;45.532;5.290;2023-02-01T06:10:13;5.60;94.60
24326;DHT22;12448;45.532;5.290;2023-02-01T06:12:47;5.60;94.60
24326;DHT22;12448;45.532;5.290;2023-02-01T06:15:14;5.60;94.60
24326;DHT22;12448;45.532;5.290;2023-02-01T06:18:05;5.60;94.80
24326;DHT22;12448;45.532;5.290;2023-02-01T06:20:31;5.60;94.80
24326;DHT22;12448;45.532;5.290;2023-02-01T06:23:12;5.60;94.80
24326;DHT22;12448;45.532;5.290;2023-02-01T06:25:41;6.00;95.00
24326;DHT22;12448;45.532;5.290;2023-02-01T06:28:16;5.80;94.90
24326;DHT22;12448;45.532;5.290;2023-02-01T06:30:47;5.60;94.90
24326;DHT22;12448;45.532;5.290;2023-02-01T06:33:16;6.00;95.00
24326;DHT22;12448;45.532;5.290;2023-02-01T06:35:47;5.60;95.00
24326;DHT22;12448;45.532;5.290;2023-02-01T06:38:13;5.50;95.00
24326;DHT22;12448;45.532;5.290;2023-02-01T06:40:42;6.00;95.30
24326;DHT22;12448;45.532;5.290;2023-02-01T06:43:09;5.60;95.30
24326;DHT22;12448;45.532;5.290;2023-02-01T06:49:13;5.40;95.40
24326;DHT22;12448;45.532;5.290;2023-02-01T06:51:43;5.40;95.40
24326;DHT22;12448;45.532;5.290;2023-02-01T06:54:12;5.30;95.40
24326;DHT22;12448;45.532;5.290;2023-02-01T06:56:46;5.40;95.60
24326;DHT22;12448;45.532;5.290;2023-02-01T06:59:28;5.60;95.80
24326;DHT22;12448;45.532;5.290;2023-02-01T07:02:20;5.30;95.70
24326;DHT22;12448;45.532;5.290;2023-02-01T07:04:50;5.40;95.80
24326;DHT22;12448;45.532;5.290;2023-02-01T07:07:40;5.30;95.80
24326;DHT22;12448;45.532;5.290;2023-02-01T07:10:18;5.40;95.90
24326;DHT22;12448;45.532;5.290;2023-02-01T07:13:16;5.40;95.90
24326;DHT22;12448;45.532;5.290;2023-02-01T07:15:41;5.50;96.00
24326;DHT22;12448;45.532;5.290;2023-02-01T07:18:16;5.40;96.10
24326;DHT22;12448;45.532;5.290;2023-02-01T07:20:52;5.40;96.10
24326;DHT22;12448;45.532;5.290;2023-02-01T07:23:30;5.50;96.20
24326;DHT22;12448;45.532;5.290;2023-02-01T07:25:58;5.50;96.20
24326;DHT22;12448;45.532;5.290;2023-02-01T07:28:31;5.70;96.30
24326;DHT22;12448;45.532;5.290;2023-02-01T07:31:21;5.50;96.20
24326;DHT22;12448;45.532;5.290;2023-02-01T07:33:56;5.50;96.20
24326;DHT22;12448;45.532;5.290;2023-02-01T07:36:30;5.50;96.30
24326;DHT22;12448;45.532;5.290;2023-02-01T07:42:18;5.40;96.30
24326;DHT22;12448;45.532;5.290;2023-02-01T07:44:52;5.30;96.40
24326;DHT22;12448;45.532;5.290;2023-02-01T07:47:17;5.20;96.50
24326;DHT22;12448;45.532;5.290;2023-02-01T07:49:55;5.20;96.70
24326;DHT22;12448;45.532;5.290;2023-02-01T07:52:21;5.70;96.90
24326;DHT22;12448;45.532;5.290;2023-02-01T07:54:47;5.20;96.80
24326;DHT22;12448;45.532;5.290;2023-02-01T07:57:13;5.20;96.90
24326;DHT22;12448;45.532;5.290;2023-02-01T07:59:39;5.30;96.90
24326;DHT22;12448;45.532;5.290;2023-02-01T08:02:24;5.30;96.90
24326;DHT22;12448;45.532;5.290;2023-02-01T08:04:52;5.30;97.00
24326;DHT22;12448;45.532;5.290;2023-02-01T08:07:29;5.30;97.00
24326;DHT22;12448;45.532;5.290;2023-02-01T08:09:57;5.40;97.10
24326;DHT22;12448;45.532;5.290;2023-02-01T08:12:26;5.40;97.10
24326;DHT22;12448;45.532;5.290;2023-02-01T08:14:53;5.40;97.00
24326;DHT22;12448;45.532;5.290;2023-02-01T08:17:27;5.40;97.20
24326;DHT22;12448;45.532;5.290;2023-02-01T08:20:10;5.50;97.20
24326;DHT22;12448;45.532;5.290;2023-02-01T08:22:48;5.50;97.20
24326;DHT22;12448;45.532;5.290;2023-02-01T08:25:17;5.60;97.30
24326;DHT22;12448;45.532;5.290;2023-02-01T08:27:46;5.60;97.30
24326;DHT22;12448;45.532;5.290;2023-02-01T08:30:15;5.60;97.30
24326;DHT22;12448;45.532;5.290;2023-02-01T08:32:56;5.70;97.40
24326;DHT22;12448;45.532;5.290;2023-02-01T08:35:23;5.70;97.40
24326;DHT22;12448;45.532;5.290;2023-02-01T08:41:55;5.80;97.50
24326;DHT22;12448;45.532;5.290;2023-02-01T08:44:57;5.90;97.50
24326;DHT22;12448;45.532;5.290;2023-02-01T08:47:53;5.90;97.50
24326;DHT22;12448;45.532;5.290;2023-02-01T08:50:39;5.90;97.50
24326;DHT22;12448;45.532;5.290;2023-02-01T08:53:05;5.90;97.50
24326;DHT22;12448;45.532;5.290;2023-02-01T08:55:42;5.80;97.60
24326;DHT22;12448;45.532;5.290;2023-02-01T08:58:11;6.10;97.60
24326;DHT22;12448;45.532;5.290;2023-02-01T09:04:20;5.80;97.70
24326;DHT22;12448;45.532;5.290;2023-02-01T09:07:37;5.80;97.70
24326;DHT22;12448;45.532;5.290;2023-02-01T09:09:49;6.20;97.80
24326;DHT22;12448;45.532;5.290;2023-02-01T09:13:13;5.80;97.70
24326;DHT22;12448;45.532;5.290;2023-02-01T09:15:59;5.80;97.80
24326;DHT22;12448;45.532;5.290;2023-02-01T09:22:14;5.90;97.90
24326;DHT22;12448;45.532;5.290;2023-02-01T09:24:52;5.90;97.90
24326;DHT22;12448;45.532;5.290;2023-02-01T09:27:21;5.90;98.00
24326;DHT22;12448;45.532;5.290;2023-02-01T09:29:47;5.90;98.00
24326;DHT22;12448;45.532;5.290;2023-02-01T09:32:21;5.90;98.10
24326;DHT22;12448;45.532;5.290;2023-02-01T09:34:50;5.80;98.10
24326;DHT22;12448;45.532;5.290;2023-02-01T09:37:17;5.90;98.20
24326;DHT22;12448;45.532;5.290;2023-02-01T09:39:46;5.90;98.20
24326;DHT22;12448;45.532;5.290;2023-02-01T09:47:42;5.90;98.40
24326;DHT22;12448;45.532;5.290;2023-02-01T09:50:18;5.90;98.30
24326;DHT22;12448;45.532;5.290;2023-02-01T09:56:05;5.80;98.50
24326;DHT22;12448;45.532;5.290;2023-02-01T09:58:38;5.80;98.60
24326;DHT22;12448;45.532;5.290;2023-02-01T10:04:08;5.70;98.70
24326;DHT22;12448;45.532;5.290;2023-02-01T10:14:51;5.60;99.30
24326;DHT22;12448;45.532;5.290;2023-02-01T10:20:29;5.50;99.50
24326;DHT22;12448;45.532;5.290;2023-02-01T10:28:14;5.50;99.80
24326;DHT22;12448;45.532;5.290;2023-02-01T10:30:47;5.50;99.90
24326;DHT22;12448;45.532;5.290;2023-02-01T10:33:17;5.60;99.90
24326;DHT22;12448;45.532;5.290;2023-02-01T10:35:56;5.60;99.90
24326;DHT22;12448;45.532;5.290;2023-02-01T10:38:34;5.60;99.90
24326;DHT22;12448;45.532;5.290;2023-02-01T10:41:17;5.70;99.90
24326;DHT22;12448;45.532;5.290;2023-02-01T10:43:54;5.70;99.90
24326;DHT22;12448;45.532;5.290;2023-02-01T10:46:26;5.70;99.90
24326;DHT22;12448;45.532;5.290;2023-02-01T10:49:16;5.70;99.90
24326;DHT22;12448;45.532;5.290;2023-02-01T10:52:11;5.70;99.90
24326;DHT22;12448;45.532;5.290;2023-02-01T10:54:39;5.80;99.90
24326;DHT22;12448;45.532;5.290;2023-02-01T10:57:23;5.80;99.90
24326;DHT22;12448;45.532;5.290;2023-02-01T11:00:21;5.80;99.90
24326;DHT22;12448;45.532;5.290;2023-02-01T11:02:50;5.80;99.90
24326;DHT22;12448;45.532;5.290;2023-02-01T11:05:20;5.80;99.90
24326;DHT22;12448;45.532;5.290;2023-02-01T11:07:53;5.80;99.90
24326;DHT22;12448;45.532;5.290;2023-02-01T11:10:38;5.80;99.90
24326;DHT22;12448;45.532;5.290;2023-02-01T11:13:15;5.80;99.90
24326;DHT22;12448;45.532;5.290;2023-02-01T11:16:18;5.90;99.90
24326;DHT22;12448;45.532;5.290;2023-02-01T11:18:41;6.00;99.90
24326;DHT22;12448;45.532;5.290;2023-02-01T11:21:13;6.00;99.80
24326;DHT22;12448;45.532;5.290;2023-02-01T11:23:43;6.10;99.80
24326;DHT22;12448;45.532;5.290;2023-02-01T11:26:59;6.60;99.70
24326;DHT22;12448;45.532;5.290;2023-02-01T11:29:14;6.10;99.40
24326;DHT22;12448;45.532;5.290;2023-02-01T11:31:48;6.20;99.40
24326;DHT22;12448;45.532;5.290;2023-02-01T11:34:24;6.20;99.30
24326;DHT22;12448;45.532;5.290;2023-02-01T11:36:58;6.30;99.20
24326;DHT22;12448;45.532;5.290;2023-02-01T11:39:28;6.30;99.10
24326;DHT22;12448;45.532;5.290;2023-02-01T11:42:21;6.30;99.00
24326;DHT22;12448;45.532;5.290;2023-02-01T11:44:48;6.30;98.90
24326;DHT22;12448;45.532;5.290;2023-02-01T11:50:00;6.30;98.80
24326;DHT22;12448;45.532;5.290;2023-02-01T11:52:49;6.30;98.90
24326;DHT22;12448;45.532;5.290;2023-02-01T12:19:05;6.60;98.70
24326;DHT22;12448;45.532;5.290;2023-02-01T12:21:45;6.70;98.60
24326;DHT22;12448;45.532;5.290;2023-02-01T12:36:16;6.50;98.60
24326;DHT22;12448;45.532;5.290;2023-02-01T12:45:01;6.50;98.80
24326;DHT22;12448;45.532;5.290;2023-02-01T12:47:46;6.50;98.80
24326;DHT22;12448;45.532;5.290;2023-02-01T12:50:55;6.50;98.70
24326;DHT22;12448;45.532;5.290;2023-02-01T12:56:47;6.40;98.90
24326;DHT22;12448;45.532;5.290;2023-02-01T13:02:31;6.40;99.00
24326;DHT22;12448;45.532;5.290;2023-02-01T13:05:24;6.80;99.30
24326;DHT22;12448;45.532;5.290;2023-02-01T13:08:10;6.30;99.10
24326;DHT22;12448;45.532;5.290;2023-02-01T13:11:06;6.30;99.00
24326;DHT22;12448;45.532;5.290;2023-02-01T13:22:05;6.40;98.40
24326;DHT22;12448;45.532;5.290;2023-02-01T13:27:27;6.50;98.30
24326;DHT22;12448;45.532;5.290;2023-02-01T13:30:26;6.50;98.20
24326;DHT22;12448;45.532;5.290;2023-02-01T13:39:03;6.80;97.80
24326;DHT22;12448;45.532;5.290;2023-02-01T13:41:28;7.00;97.80
24326;DHT22;12448;45.532;5.290;2023-02-01T13:44:14;7.10;97.20
24326;DHT22;12448;45.532;5.290;2023-02-01T13:46:46;7.10;97.00
24326;DHT22;12448;45.532;5.290;2023-02-01T13:49:20;7.10;96.90
24326;DHT22;12448;45.532;5.290;2023-02-01T13:51:58;7.60;96.80
24326;DHT22;12448;45.532;5.290;2023-02-01T13:54:30;7.10;96.60
24326;DHT22;12448;45.532;5.290;2023-02-01T13:56:59;7.20;96.70
24326;DHT22;12448;45.532;5.290;2023-02-01T13:59:50;7.10;96.20
24326;DHT22;12448;45.532;5.290;2023-02-01T14:09:44;7.30;95.80
24326;DHT22;12448;45.532;5.290;2023-02-01T14:12:52;7.30;95.70
24326;DHT22;12448;45.532;5.290;2023-02-01T14:15:40;7.30;95.40
24326;DHT22;12448;45.532;5.290;2023-02-01T14:26:55;7.00;94.40
24326;DHT22;12448;45.532;5.290;2023-02-01T14:29:31;7.00;94.80
24326;DHT22;12448;45.532;5.290;2023-02-01T14:32:34;6.90;94.50
24326;DHT22;12448;45.532;5.290;2023-02-01T14:35:07;7.00;94.80
24326;DHT22;12448;45.532;5.290;2023-02-01T14:37:47;7.00;94.80
24326;DHT22;12448;45.532;5.290;2023-02-01T14:40:32;7.50;94.90
24326;DHT22;12448;45.532;5.290;2023-02-01T14:43:01;7.10;94.80
24326;DHT22;12448;45.532;5.290;2023-02-01T14:56:16;7.20;94.40
24326;DHT22;12448;45.532;5.290;2023-02-01T14:59:16;7.40;94.00
24326;DHT22;12448;45.532;5.290;2023-02-01T15:01:52;7.50;94.10
24326;DHT22;12448;45.532;5.290;2023-02-01T15:04:19;7.50;93.90
24326;DHT22;12448;45.532;5.290;2023-02-01T15:06:57;7.60;93.90
24326;DHT22;12448;45.532;5.290;2023-02-01T15:09:37;7.40;93.00
24326;DHT22;12448;45.532;5.290;2023-02-01T15:12:18;7.60;92.60
24326;DHT22;12448;45.532;5.290;2023-02-01T15:17:57;7.60;92.20
24326;DHT22;12448;45.532;5.290;2023-02-01T15:20:30;7.90;92.30
24326;DHT22;12448;45.532;5.290;2023-02-01T15:23:05;7.50;92.20
24326;DHT22;12448;45.532;5.290;2023-02-01T15:25:36;7.50;92.20
24326;DHT22;12448;45.532;5.290;2023-02-01T15:28:02;7.40;92.10
24326;DHT22;12448;45.532;5.290;2023-02-01T15:30:39;7.40;92.10
24326;DHT22;12448;45.532;5.290;2023-02-01T15:33:22;7.40;92.00
24326;DHT22;12448;45.532;5.290;2023-02-01T15:38:43;7.30;92.10
24326;DHT22;12448;45.532;5.290;2023-02-01T15:41:19;7.30;92.20
24326;DHT22;12448;45.532;5.290;2023-02-01T15:47:28;7.00;92.20
24326;DHT22;12448;45.532;5.290;2023-02-01T15:49:58;7.10;92.10
24326;DHT22;12448;45.532;5.290;2023-02-01T15:52:46;7.10;92.20
24326;DHT22;12448;45.532;5.290;2023-02-01T15:55:38;7.10;92.40
24326;DHT22;12448;45.532;5.290;2023-02-01T15:58:18;7.10;92.50
24326;DHT22;12448;45.532;5.290;2023-02-01T16:04:30;7.00;93.10
24326;DHT22;12448;45.532;5.290;2023-02-01T16:07:01;7.00;93.10
24326;DHT22;12448;45.532;5.290;2023-02-01T16:09:51;6.90;93.00
24326;DHT22;12448;45.532;5.290;2023-02-01T16:12:54;6.90;93.10
24326;DHT22;12448;45.532;5.290;2023-02-01T16:15:24;6.90;93.20
24326;DHT22;12448;45.532;5.290;2023-02-01T16:18:02;7.00;93.00
24326;DHT22;12448;45.532;5.290;2023-02-01T16:20:30;6.70;93.00
24326;DHT22;12448;45.532;5.290;2023-02-01T16:22:58;6.70;93.20
24326;DHT22;12448;45.532;5.290;2023-02-01T16:25:27;6.70;93.30
24326;DHT22;12448;45.532;5.290;2023-02-01T16:27:53;6.70;93.30
24326;DHT22;12448;45.532;5.290;2023-02-01T16:30:35;6.70;93.30
24326;DHT22;12448;45.532;5.290;2023-02-01T16:35:55;6.50;93.40
24326;DHT22;12448;45.532;5.290;2023-02-01T16:39:03;6.60;93.60
24326;DHT22;12448;45.532;5.290;2023-02-01T16:45:27;6.50;93.80
24326;DHT22;12448;45.532;5.290;2023-02-01T16:47:57;6.40;93.90
24326;DHT22;12448;45.532;5.290;2023-02-01T16:51:25;6.40;94.10
24326;DHT22;12448;45.532;5.290;2023-02-01T16:57:11;6.40;94.30
24326;DHT22;12448;45.532;5.290;2023-02-01T17:02:34;6.40;94.50
24326;DHT22;12448;45.532;5.290;2023-02-01T17:05:04;6.40;94.60
24326;DHT22;12448;45.532;5.290;2023-02-01T17:07:40;6.40;94.60
24326;DHT22;12448;45.532;5.290;2023-02-01T17:10:23;6.40;94.60
24326;DHT22;12448;45.532;5.290;2023-02-01T17:12:56;6.70;95.00
24326;DHT22;12448;45.532;5.290;2023-02-01T17:15:53;6.30;95.00
24326;DHT22;12448;45.532;5.290;2023-02-01T17:18:31;6.30;95.00
24326;DHT22;12448;45.532;5.290;2023-02-01T17:21:06;6.30;95.10
24326;DHT22;12448;45.532;5.290;2023-02-01T17:23:34;6.30;95.00
24326;DHT22;12448;45.532;5.290;2023-02-01T17:26:00;6.20;94.90
24326;DHT22;12448;45.532;5.290;2023-02-01T17:28:28;6.30;94.90
24326;DHT22;12448;45.532;5.290;2023-02-01T17:33:56;6.30;94.60
24326;DHT22;12448;45.532;5.290;2023-02-01T17:36:46;6.20;94.30
24326;DHT22;12448;45.532;5.290;2023-02-01T17:39:16;6.20;94.40
24326;DHT22;12448;45.532;5.290;2023-02-01T17:42:02;6.20;94.50
24326;DHT22;12448;45.532;5.290;2023-02-01T17:44:51;6.30;94.40
24326;DHT22;12448;45.532;5.290;2023-02-01T17:47:17;6.30;94.20
24326;DHT22;12448;45.532;5.290;2023-02-01T17:49:49;6.30;94.10
24326;DHT22;12448;45.532;5.290;2023-02-01T17:52:44;6.20;94.00
24326;DHT22;12448;45.532;5.290;2023-02-01T17:55:21;6.20;94.20
24326;DHT22;12448;45.532;5.290;2023-02-01T17:57:54;6.20;94.30
24326;DHT22;12448;45.532;5.290;2023-02-01T18:00:24;6.20;94.20
24326;DHT22;12448;45.532;5.290;2023-02-01T18:03:22;6.20;94.30
24326;DHT22;12448;45.532;5.290;2023-02-01T18:06:03;6.20;94.10
24326;DHT22;12448;45.532;5.290;2023-02-01T18:08:34;6.10;94.00
24326;DHT22;12448;45.532;5.290;2023-02-01T18:11:10;6.10;94.00
24326;DHT22;12448;45.532;5.290;2023-02-01T18:13:52;6.10;93.80
24326;DHT22;12448;45.532;5.290;2023-02-01T18:16:41;6.70;93.80
24326;DHT22;12448;45.532;5.290;2023-02-01T18:19:07;6.10;93.50
24326;DHT22;12448;45.532;5.290;2023-02-01T18:21:44;6.10;93.40
24326;DHT22;12448;45.532;5.290;2023-02-01T18:24:22;6.10;93.30
24326;DHT22;12448;45.532;5.290;2023-02-01T18:26:55;6.20;93.20
24326;DHT22;12448;45.532;5.290;2023-02-01T18:29:24;6.20;93.20
24326;DHT22;12448;45.532;5.290;2023-02-01T18:31:50;6.20;93.00
24326;DHT22;12448;45.532;5.290;2023-02-01T18:34:24;6.20;93.00
24326;DHT22;12448;45.532;5.290;2023-02-01T18:36:54;6.20;93.00
24326;DHT22;12448;45.532;5.290;2023-02-01T18:39:26;6.20;92.90
24326;DHT22;12448;45.532;5.290;2023-02-01T18:41:55;6.20;92.90
24326;DHT22;12448;45.532;5.290;2023-02-01T18:44:21;6.20;92.80
24326;DHT22;12448;45.532;5.290;2023-02-01T18:46:48;6.20;92.80
24326;DHT22;12448;45.532;5.290;2023-02-01T18:49:21;6.20;92.90
24326;DHT22;12448;45.532;5.290;2023-02-01T18:51:47;6.20;92.80
24326;DHT22;12448;45.532;5.290;2023-02-01T18:54:16;6.20;92.80
24326;DHT22;12448;45.532;5.290;2023-02-01T18:56:42;6.20;92.80
24326;DHT22;12448;45.532;5.290;2023-02-01T18:59:08;6.20;92.80
24326;DHT22;12448;45.532;5.290;2023-02-01T19:01:36;6.10;92.90
24326;DHT22;12448;45.532;5.290;2023-02-01T19:04:47;6.10;92.90
24326;DHT22;12448;45.532;5.290;2023-02-01T19:07:04;6.10;93.00
24326;DHT22;12448;45.532;5.290;2023-02-01T19:09:36;6.20;93.00
24326;DHT22;12448;45.532;5.290;2023-02-01T19:12:05;6.20;93.00
24326;DHT22;12448;45.532;5.290;2023-02-01T19:14:31;6.10;93.10
24326;DHT22;12448;45.532;5.290;2023-02-01T19:17:02;6.10;93.10
24326;DHT22;12448;45.532;5.290;2023-02-01T19:19:28;6.00;93.00
24326;DHT22;12448;45.532;5.290;2023-02-01T19:21:54;6.00;93.10
24326;DHT22;12448;45.532;5.290;2023-02-01T19:24:20;6.10;93.10
24326;DHT22;12448;45.532;5.290;2023-02-01T19:26:52;6.10;93.00
24326;DHT22;12448;45.532;5.290;2023-02-01T19:29:18;6.00;93.10
24326;DHT22;12448;45.532;5.290;2023-02-01T19:31:44;6.00;93.20
24326;DHT22;12448;45.532;5.290;2023-02-01T19:34:19;6.00;93.20
24326;DHT22;12448;45.532;5.290;2023-02-01T19:36:48;6.00;93.30
24326;DHT22;12448;45.532;5.290;2023-02-01T19:39:21;6.00;93.20
24326;DHT22;12448;45.532;5.290;2023-02-01T19:41:51;6.00;93.30
24326;DHT22;12448;45.532;5.290;2023-02-01T19:44:23;6.00;93.30
24326;DHT22;12448;45.532;5.290;2023-02-01T19:46:58;6.00;93.30
24326;DHT22;12448;45.532;5.290;2023-02-01T19:49:33;6.00;93.30
24326;DHT22;12448;45.532;5.290;2023-02-01T19:51:59;6.10;93.20
24326;DHT22;12448;45.532;5.290;2023-02-01T19:54:25;6.10;93.20
24326;DHT22;12448;45.532;5.290;2023-02-01T19:56:56;6.10;93.20
24326;DHT22;12448;45.532;5.290;2023-02-01T19:59:22;6.10;93.20
24326;DHT22;12448;45.532;5.290;2023-02-01T20:01:53;6.10;93.20
24326;DHT22;12448;45.532;5.290;2023-02-01T20:04:19;6.00;93.10
24326;DHT22;12448;45.532;5.290;2023-02-01T20:06:46;6.00;92.90
24326;DHT22;12448;45.532;5.290;2023-02-01T20:09:20;6.00;92.90
24326;DHT22;12448;45.532;5.290;2023-02-01T20:11:50;5.90;93.00
24326;DHT22;12448;45.532;5.290;2023-02-01T20:14:20;5.90;93.10
24326;DHT22;12448;45.532;5.290;2023-02-01T20:16:45;5.90;93.00
24326;DHT22;12448;45.532;5.290;2023-02-01T20:19:11;5.90;92.90
24326;DHT22;12448;45.532;5.290;2023-02-01T20:21:38;6.00;93.00
24326;DHT22;12448;45.532;5.290;2023-02-01T20:24:08;5.90;92.90
24326;DHT22;12448;45.532;5.290;2023-02-01T20:26:34;5.90;92.70
24326;DHT22;12448;45.532;5.290;2023-02-01T20:29:13;5.90;92.70
24326;DHT22;12448;45.532;5.290;2023-02-01T20:31:52;6.10;92.70
24326;DHT22;12448;45.532;5.290;2023-02-01T20:34:18;5.90;92.50
24326;DHT22;12448;45.532;5.290;2023-02-01T20:36:47;5.90;92.50
24326;DHT22;12448;45.532;5.290;2023-02-01T20:39:12;5.90;92.40
24326;DHT22;12448;45.532;5.290;2023-02-01T20:41:48;5.90;92.40
24326;DHT22;12448;45.532;5.290;2023-02-01T20:44:20;5.80;92.30
24326;DHT22;12448;45.532;5.290;2023-02-01T20:46:49;5.80;92.40
24326;DHT22;12448;45.532;5.290;2023-02-01T20:49:17;5.80;92.30